createdAt,value
2017-11-18T00:00:56.144Z,0
2017-11-18T00:01:56.125Z,0
2017-11-18T00:02:56.111Z,0
2017-11-18T00:03:56.088Z,0
2017-11-18T00:04:56.096Z,0
2017-11-18T00:05:56.068Z,0
2017-11-18T00:06:56.310Z,0
2017-11-18T00:07:56.042Z,0
2017-11-18T00:08:56.036Z,0
2017-11-18T00:09:55.746Z,0
2017-11-18T00:10:55.989Z,0
2017-11-18T00:11:55.970Z,0
2017-11-18T00:12:55.949Z,0
2017-11-18T00:13:55.942Z,0
2017-11-18T00:14:55.939Z,0
2017-11-18T00:15:55.918Z,0
2017-11-18T00:16:55.901Z,0
2017-11-18T00:17:55.891Z,0
2017-11-18T00:18:55.614Z,0
2017-11-18T00:19:55.906Z,0
2017-11-18T00:20:55.839Z,0
2017-11-18T00:21:55.815Z,0
2017-11-18T00:22:55.798Z,0
2017-11-18T00:23:55.813Z,0
2017-11-18T00:24:55.774Z,0
2017-11-18T00:25:55.765Z,0
2017-11-18T00:26:55.482Z,0
2017-11-18T00:27:55.755Z,0
2017-11-18T00:28:55.738Z,0
2017-11-18T00:29:55.712Z,0
2017-11-18T00:30:55.695Z,0
2017-11-18T00:31:55.686Z,0
2017-11-18T00:32:55.665Z,0
2017-11-18T00:33:55.635Z,0
2017-11-18T00:34:55.626Z,0
2017-11-18T00:35:55.620Z,0
2017-11-18T00:36:55.334Z,0
2017-11-18T00:37:55.834Z,0
2017-11-18T00:38:55.565Z,0
2017-11-18T00:39:55.541Z,0
2017-11-18T00:40:55.534Z,0
2017-11-18T00:41:55.517Z,0
2017-11-18T00:42:55.507Z,0
2017-11-18T00:43:55.233Z,0
2017-11-18T00:44:55.475Z,0
2017-11-18T00:45:55.463Z,0
2017-11-18T00:46:55.442Z,0
2017-11-18T00:47:55.422Z,0
2017-11-18T00:48:54.904Z,0
2017-11-18T00:49:55.397Z,0
2017-11-18T00:50:55.384Z,0
2017-11-18T00:51:55.371Z,0
2017-11-18T00:52:55.349Z,0
2017-11-18T00:53:55.087Z,0
2017-11-18T00:54:55.061Z,0
2017-11-18T00:55:55.316Z,0
2017-11-18T00:56:55.307Z,0
2017-11-18T00:57:55.275Z,0
2017-11-18T00:58:55.284Z,0
2017-11-18T00:59:55.245Z,0
2017-11-18T01:00:55.243Z,0
2017-11-18T01:01:55.222Z,0
2017-11-18T01:02:55.207Z,0
2017-11-18T01:03:55.993Z,0
2017-11-18T01:04:55.198Z,0
2017-11-18T01:05:55.166Z,0
2017-11-18T01:06:55.149Z,0
2017-11-18T01:07:55.136Z,0
2017-11-18T01:08:55.122Z,0
2017-11-18T01:09:55.117Z,0
2017-11-18T01:10:55.101Z,0
2017-11-18T01:11:55.085Z,0
2017-11-18T01:12:55.059Z,0
2017-11-18T01:13:55.060Z,0
2017-11-18T01:14:55.035Z,0
2017-11-18T01:15:55.064Z,0
2017-11-18T01:16:55.006Z,0
2017-11-18T01:17:55.011Z,0
2017-11-18T01:18:54.976Z,0
2017-11-18T01:19:54.972Z,0
2017-11-18T01:20:54.947Z,0
2017-11-18T01:21:54.952Z,0
2017-11-18T01:22:54.930Z,0
2017-11-18T01:23:54.924Z,0
2017-11-18T01:24:54.905Z,0
2017-11-18T01:25:54.897Z,0
2017-11-18T01:26:54.863Z,0
2017-11-18T01:27:54.855Z,0
2017-11-18T01:28:54.586Z,0
2017-11-18T01:29:54.817Z,0
2017-11-18T01:30:54.549Z,0
2017-11-18T01:31:54.790Z,0
2017-11-18T01:32:54.789Z,0
2017-11-18T01:33:54.502Z,0
2017-11-18T01:34:54.759Z,0
2017-11-18T01:35:54.488Z,0
2017-11-18T01:36:54.467Z,0
2017-11-18T01:37:54.717Z,0
2017-11-18T01:38:54.699Z,0
2017-11-18T01:39:54.434Z,0
2017-11-18T01:40:54.929Z,0
2017-11-18T01:41:54.659Z,0
2017-11-18T01:42:54.642Z,0
2017-11-18T01:43:54.624Z,0
2017-11-18T01:44:54.613Z,0
2017-11-18T01:45:54.598Z,0
2017-11-18T01:46:54.582Z,0
2017-11-18T01:47:54.585Z,0
2017-11-18T01:48:54.574Z,0
2017-11-18T01:49:54.545Z,0
2017-11-18T01:50:54.527Z,0
2017-11-18T01:51:54.513Z,0
2017-11-18T01:52:54.505Z,0
2017-11-18T01:53:54.487Z,0
2017-11-18T01:54:54.475Z,0
2017-11-18T01:55:54.462Z,0
2017-11-18T01:56:54.445Z,0
2017-11-18T01:57:54.436Z,0
2017-11-18T01:58:54.420Z,0
2017-11-18T01:59:54.401Z,0
2017-11-18T02:00:54.135Z,0
2017-11-18T02:01:54.125Z,0
2017-11-18T02:02:54.398Z,0
2017-11-18T02:03:54.352Z,0
2017-11-18T02:04:54.344Z,0
2017-11-18T02:05:54.365Z,0
2017-11-18T02:06:54.316Z,0
2017-11-18T02:07:54.293Z,0
2017-11-18T02:08:54.294Z,0
2017-11-18T02:09:54.273Z,0
2017-11-18T02:10:54.253Z,0
2017-11-18T02:11:54.484Z,0
2017-11-18T02:12:53.973Z,0
2017-11-18T02:13:54.206Z,0
2017-11-18T02:14:54.198Z,0
2017-11-18T02:15:54.177Z,0
2017-11-18T02:16:54.175Z,0
2017-11-18T02:17:54.164Z,0
2017-11-18T02:18:54.136Z,0
2017-11-18T02:19:54.133Z,0
2017-11-18T02:20:54.108Z,0
2017-11-18T02:21:54.098Z,0
2017-11-18T02:22:54.083Z,0
2017-11-18T02:23:54.069Z,0
2017-11-18T02:24:54.058Z,0
2017-11-18T02:25:54.048Z,0
2017-11-18T02:26:53.774Z,0
2017-11-18T02:27:54.026Z,0
2017-11-18T02:28:53.998Z,0
2017-11-18T02:29:53.992Z,0
2017-11-18T02:30:54.000Z,0
2017-11-18T02:31:53.969Z,0
2017-11-18T02:32:53.948Z,0
2017-11-18T02:33:53.930Z,0
2017-11-18T02:34:53.921Z,0
2017-11-18T02:35:53.911Z,0
2017-11-18T02:36:53.904Z,0
2017-11-18T02:37:53.894Z,0
2017-11-18T02:38:53.867Z,0
2017-11-18T02:39:53.591Z,0
2017-11-18T02:40:53.840Z,0
2017-11-18T02:41:53.844Z,0
2017-11-18T02:42:54.067Z,0
2017-11-18T02:43:53.795Z,0
2017-11-18T02:44:53.801Z,0
2017-11-18T02:45:53.768Z,0
2017-11-18T02:46:53.757Z,0
2017-11-18T02:47:53.743Z,0
2017-11-18T02:48:53.737Z,0
2017-11-18T02:49:53.722Z,0
2017-11-18T02:50:53.700Z,0
2017-11-18T02:51:53.694Z,0
2017-11-18T02:52:53.674Z,0
2017-11-18T02:53:53.663Z,0
2017-11-18T02:54:53.397Z,0
2017-11-18T02:55:53.622Z,0
2017-11-18T02:56:53.648Z,0
2017-11-18T02:57:53.340Z,0
2017-11-18T02:58:53.573Z,0
2017-11-18T02:59:53.566Z,0
2017-11-18T03:00:53.558Z,0
2017-11-18T03:01:53.530Z,0
2017-11-18T03:02:53.521Z,0
2017-11-18T03:03:53.504Z,0
2017-11-18T03:04:53.494Z,0
2017-11-18T03:05:53.479Z,0
2017-11-18T03:06:53.449Z,0
2017-11-18T03:07:53.444Z,0
2017-11-18T03:08:53.421Z,0
2017-11-18T03:09:53.423Z,0
2017-11-18T03:10:53.395Z,0
2017-11-18T03:11:53.384Z,0
2017-11-18T03:12:53.368Z,0
2017-11-18T03:13:53.600Z,0
2017-11-18T03:14:53.344Z,0
2017-11-18T03:15:53.353Z,0
2017-11-18T03:16:53.300Z,0
2017-11-18T03:17:53.041Z,0
2017-11-18T03:18:53.279Z,0
2017-11-18T03:19:53.262Z,0
2017-11-18T03:20:53.246Z,0
2017-11-18T03:21:53.230Z,0
2017-11-18T03:22:53.218Z,0
2017-11-18T03:23:53.209Z,0
2017-11-18T03:24:53.189Z,0
2017-11-18T03:25:53.181Z,0
2017-11-18T03:26:53.211Z,0
2017-11-18T03:27:53.173Z,0
2017-11-18T03:28:52.886Z,0
2017-11-18T03:29:52.854Z,0
2017-11-18T03:30:53.117Z,0
2017-11-18T03:31:53.092Z,0
2017-11-18T03:32:53.075Z,0
2017-11-18T03:33:53.068Z,0
2017-11-18T03:34:53.035Z,0
2017-11-18T03:35:53.033Z,0
2017-11-18T03:36:53.026Z,0
2017-11-18T03:37:52.740Z,0
2017-11-18T03:38:52.723Z,0
2017-11-18T03:39:52.970Z,0
2017-11-18T03:40:52.955Z,0
2017-11-18T03:41:52.949Z,0
2017-11-18T03:42:52.936Z,0
2017-11-18T03:43:52.661Z,0
2017-11-18T03:44:52.893Z,0
2017-11-18T03:45:52.890Z,0
2017-11-18T03:46:52.863Z,0
2017-11-18T03:47:52.854Z,0
2017-11-18T03:48:52.836Z,0
2017-11-18T03:49:52.821Z,0
2017-11-18T03:50:52.817Z,0
2017-11-18T03:51:52.806Z,0
2017-11-18T03:52:52.783Z,0
2017-11-18T03:53:52.772Z,0
2017-11-18T03:54:52.751Z,0
2017-11-18T03:55:52.478Z,0
2017-11-18T03:56:52.731Z,0
2017-11-18T03:57:52.715Z,0
2017-11-18T03:58:52.702Z,0
2017-11-18T03:59:52.685Z,0
2017-11-18T04:00:52.664Z,0
2017-11-18T04:01:52.652Z,0
2017-11-18T04:02:52.637Z,0
2017-11-18T04:03:52.623Z,0
2017-11-18T04:04:52.619Z,0
2017-11-18T04:05:52.591Z,0
2017-11-18T04:06:52.585Z,0
2017-11-18T04:07:52.573Z,0
2017-11-18T04:08:52.565Z,0
2017-11-18T04:09:52.545Z,0
2017-11-18T04:10:52.530Z,0
2017-11-18T04:11:52.517Z,0
2017-11-18T04:12:52.252Z,0
2017-11-18T04:13:52.491Z,0
2017-11-18T04:14:52.479Z,0
2017-11-18T04:15:52.457Z,0
2017-11-18T04:16:52.692Z,0
2017-11-18T04:17:52.436Z,0
2017-11-18T04:18:52.423Z,0
2017-11-18T04:19:52.398Z,0
2017-11-18T04:20:52.388Z,0
2017-11-18T04:21:52.383Z,0
2017-11-18T04:22:52.354Z,0
2017-11-18T04:23:52.346Z,0
2017-11-18T04:24:52.337Z,0
2017-11-18T04:25:52.331Z,0
2017-11-18T04:26:52.320Z,0
2017-11-18T04:27:52.326Z,0
2017-11-18T04:28:52.288Z,0
2017-11-18T04:29:52.266Z,0
2017-11-18T04:30:52.261Z,0
2017-11-18T04:31:52.242Z,0
2017-11-18T04:32:52.221Z,0
2017-11-18T04:33:52.212Z,0
2017-11-18T04:34:52.197Z,0
2017-11-18T04:35:52.186Z,0
2017-11-18T04:36:52.180Z,0
2017-11-18T04:37:52.186Z,0
2017-11-18T04:38:52.140Z,0
2017-11-18T04:39:52.130Z,0
2017-11-18T04:40:52.138Z,0
2017-11-18T04:41:52.115Z,0
2017-11-18T04:42:52.105Z,0
2017-11-18T04:43:52.091Z,0
2017-11-18T04:44:52.062Z,0
2017-11-18T04:45:52.051Z,0
2017-11-18T04:46:52.064Z,0
2017-11-18T04:47:52.277Z,0
2017-11-18T04:48:52.026Z,0
2017-11-18T04:49:52.008Z,0
2017-11-18T04:50:51.996Z,0
2017-11-18T04:51:51.961Z,0
2017-11-18T04:52:51.963Z,0
2017-11-18T04:53:51.953Z,0
2017-11-18T04:54:51.929Z,0
2017-11-18T04:55:51.921Z,0
2017-11-18T04:56:51.901Z,0
2017-11-18T04:57:51.890Z,0
2017-11-18T04:58:51.878Z,0
2017-11-18T04:59:51.871Z,0
2017-11-18T05:00:51.851Z,0
2017-11-18T05:01:51.847Z,0
2017-11-18T05:02:51.828Z,0
2017-11-18T05:03:51.818Z,0
2017-11-18T05:04:51.799Z,0
2017-11-18T05:05:51.795Z,0
2017-11-18T05:06:51.773Z,0
2017-11-18T05:07:51.753Z,0
2017-11-18T05:08:51.738Z,0
2017-11-18T05:09:51.738Z,0
2017-11-18T05:10:51.719Z,0
2017-11-18T05:11:51.709Z,0
2017-11-18T05:12:51.429Z,0
2017-11-18T05:13:51.673Z,0
2017-11-18T05:14:51.663Z,0
2017-11-18T05:15:51.651Z,0
2017-11-18T05:16:51.642Z,0
2017-11-18T05:17:51.643Z,0
2017-11-18T05:18:51.858Z,0
2017-11-18T05:19:51.598Z,0
2017-11-18T05:20:51.582Z,0
2017-11-18T05:21:51.570Z,0
2017-11-18T05:22:51.609Z,0
2017-11-18T05:23:51.559Z,0
2017-11-18T05:24:51.540Z,0
2017-11-18T05:25:51.520Z,0
2017-11-18T05:26:51.509Z,0
2017-11-18T05:27:51.494Z,0
2017-11-18T05:28:51.484Z,0
2017-11-18T05:29:51.470Z,0
2017-11-18T05:30:51.466Z,0
2017-11-18T05:31:51.442Z,0
2017-11-18T05:32:54.467Z,0
2017-11-18T05:33:51.416Z,0
2017-11-18T05:34:51.400Z,0
2017-11-18T05:35:51.386Z,0
2017-11-18T05:36:51.374Z,0
2017-11-18T05:37:51.359Z,0
2017-11-18T05:38:51.345Z,0
2017-11-18T05:39:51.345Z,0
2017-11-18T05:40:51.322Z,0
2017-11-18T05:41:51.325Z,0
2017-11-18T05:42:51.304Z,0
2017-11-18T05:43:51.281Z,0
2017-11-18T05:44:51.284Z,0
2017-11-18T05:45:51.260Z,0
2017-11-18T05:46:51.243Z,0
2017-11-18T05:47:51.235Z,0
2017-11-18T05:48:51.217Z,0
2017-11-18T05:49:51.463Z,0
2017-11-18T05:50:51.198Z,0
2017-11-18T05:51:51.184Z,0
2017-11-18T05:52:51.171Z,0
2017-11-18T05:53:51.166Z,0
2017-11-18T05:54:51.168Z,0
2017-11-18T05:55:51.146Z,0
2017-11-18T05:56:51.112Z,0
2017-11-18T05:57:51.095Z,0
2017-11-18T05:58:51.081Z,0
2017-11-18T05:59:51.077Z,0
2017-11-18T06:00:51.076Z,4
2017-11-18T06:01:51.046Z,4
2017-11-18T06:02:51.037Z,0
2017-11-18T06:03:51.026Z,4
2017-11-18T06:04:51.009Z,4
2017-11-18T06:05:50.993Z,4
2017-11-18T06:06:50.991Z,4
2017-11-18T06:07:50.962Z,8
2017-11-18T06:08:50.956Z,8
2017-11-18T06:09:50.944Z,12
2017-11-18T06:10:50.945Z,16
2017-11-18T06:11:50.930Z,12
2017-11-18T06:12:50.918Z,16
2017-11-18T06:13:50.898Z,16
2017-11-18T06:14:50.884Z,20
2017-11-18T06:15:50.869Z,24
2017-11-18T06:16:50.860Z,28
2017-11-18T06:17:50.845Z,36
2017-11-18T06:18:50.842Z,40
2017-11-18T06:19:50.860Z,44
2017-11-18T06:20:50.799Z,48
2017-11-18T06:21:50.532Z,56
2017-11-18T06:22:50.772Z,68
2017-11-18T06:23:50.761Z,76
2017-11-18T06:24:50.755Z,84
2017-11-18T06:25:50.737Z,88
2017-11-18T06:26:50.718Z,104
2017-11-18T06:27:50.714Z,108
2017-11-18T06:28:50.695Z,116
2017-11-18T06:29:50.688Z,132
2017-11-18T06:30:50.681Z,144
2017-11-18T06:31:50.665Z,160
2017-11-18T06:32:50.384Z,180
2017-11-18T06:33:50.382Z,192
2017-11-18T06:34:50.359Z,208
2017-11-18T06:35:50.617Z,216
2017-11-18T06:36:50.595Z,224
2017-11-18T06:37:50.603Z,256
2017-11-18T06:38:50.564Z,288
2017-11-18T06:39:50.575Z,312
2017-11-18T06:40:50.285Z,332
2017-11-18T06:41:50.528Z,360
2017-11-18T06:42:50.253Z,404
2017-11-18T06:43:50.518Z,428
2017-11-18T06:44:50.494Z,456
2017-11-18T06:45:50.215Z,512
2017-11-18T06:46:50.471Z,564
2017-11-18T06:47:50.192Z,612
2017-11-18T06:48:50.444Z,676
2017-11-18T06:49:50.429Z,740
2017-11-18T06:50:50.150Z,804
2017-11-18T06:51:50.399Z,828
2017-11-18T06:52:50.635Z,816
2017-11-18T06:53:50.371Z,848
2017-11-18T06:54:50.155Z,928
2017-11-18T06:55:50.088Z,988
2017-11-18T06:56:50.085Z,1012
2017-11-18T06:57:50.347Z,1120
2017-11-18T06:58:50.309Z,1244
2017-11-18T06:59:50.302Z,1272
2017-11-18T07:00:50.026Z,1216
2017-11-18T07:01:50.271Z,1212
2017-11-18T07:02:50.261Z,1264
2017-11-18T07:03:49.988Z,1376
2017-11-18T07:04:50.230Z,1468
2017-11-18T07:05:49.965Z,1536
2017-11-18T07:06:50.206Z,1536
2017-11-18T07:07:50.203Z,1480
2017-11-18T07:08:50.180Z,1572
2017-11-18T07:09:50.174Z,1740
2017-11-18T07:10:50.189Z,1872
2017-11-18T07:11:50.143Z,1812
2017-11-18T07:12:50.123Z,1788
2017-11-18T07:13:50.123Z,1788
2017-11-18T07:14:50.111Z,1908
2017-11-18T07:15:49.873Z,1936
2017-11-18T07:16:50.111Z,2092
2017-11-18T07:17:50.064Z,2164
2017-11-18T07:18:50.056Z,2172
2017-11-18T07:19:50.034Z,2204
2017-11-18T07:20:50.037Z,2340
2017-11-18T07:21:50.009Z,2464
2017-11-18T07:22:50.054Z,2524
2017-11-18T07:23:50.238Z,2596
2017-11-18T07:24:49.975Z,2840
2017-11-18T07:25:49.957Z,2884
2017-11-18T07:26:49.946Z,2816
2017-11-18T07:27:49.932Z,2668
2017-11-18T07:28:49.665Z,2532
2017-11-18T07:29:49.907Z,2612
2017-11-18T07:30:49.906Z,2528
2017-11-18T07:31:49.878Z,2416
2017-11-18T07:32:49.920Z,2376
2017-11-18T07:33:49.858Z,2380
2017-11-18T07:34:49.609Z,2428
2017-11-18T07:35:49.838Z,2476
2017-11-18T07:36:49.820Z,2492
2017-11-18T07:37:49.806Z,2568
2017-11-18T07:38:49.794Z,2568
2017-11-18T07:39:49.779Z,2592
2017-11-18T07:40:49.774Z,2604
2017-11-18T07:41:49.490Z,2636
2017-11-18T07:42:49.754Z,2664
2017-11-18T07:43:49.734Z,2708
2017-11-18T07:44:49.729Z,2732
2017-11-18T07:45:49.698Z,2820
2017-11-18T07:46:49.693Z,2880
2017-11-18T07:47:49.672Z,3020
2017-11-18T07:48:49.669Z,3112
2017-11-18T07:49:49.649Z,3356
2017-11-18T07:50:49.645Z,3548
2017-11-18T07:51:49.626Z,3800
2017-11-18T07:52:49.607Z,4252
2017-11-18T07:53:49.632Z,4788
2017-11-18T07:54:49.845Z,5212
2017-11-18T07:55:49.579Z,5564
2017-11-18T07:56:49.553Z,5720
2017-11-18T07:57:49.555Z,5684
2017-11-18T07:58:49.535Z,5504
2017-11-18T07:59:49.534Z,5260
2017-11-18T08:00:49.533Z,5024
2017-11-18T08:01:49.498Z,4952
2017-11-18T08:02:49.482Z,4644
2017-11-18T08:03:49.494Z,4356
2017-11-18T08:04:49.482Z,4456
2017-11-18T08:05:49.456Z,4836
2017-11-18T08:06:49.438Z,5292
2017-11-18T08:07:49.420Z,5520
2017-11-18T08:08:49.408Z,5508
2017-11-18T08:09:49.403Z,5424
2017-11-18T08:10:49.380Z,5364
2017-11-18T08:11:49.364Z,5192
2017-11-18T08:12:49.354Z,5084
2017-11-18T08:13:49.085Z,5068
2017-11-18T08:14:49.072Z,4940
2017-11-18T08:15:49.341Z,4888
2017-11-18T08:16:49.301Z,4792
2017-11-18T08:17:49.316Z,4708
2017-11-18T08:18:48.764Z,4640
2017-11-18T08:19:49.271Z,4668
2017-11-18T08:20:49.267Z,4708
2017-11-18T08:21:49.253Z,4828
2017-11-18T08:22:49.236Z,4912
2017-11-18T08:23:48.962Z,4852
2017-11-18T08:24:49.215Z,4780
2017-11-18T08:25:49.458Z,4700
2017-11-18T08:26:49.188Z,4700
2017-11-18T08:27:49.175Z,4748
2017-11-18T08:28:48.913Z,4792
2017-11-18T08:29:49.195Z,4680
2017-11-18T08:30:49.144Z,4788
2017-11-18T08:31:49.138Z,4808
2017-11-18T08:32:48.858Z,4724
2017-11-18T08:33:49.114Z,4664
2017-11-18T08:34:48.828Z,4536
2017-11-18T08:35:49.093Z,4560
2017-11-18T08:36:49.074Z,4616
2017-11-18T08:37:49.066Z,4564
2017-11-18T08:38:49.049Z,4468
2017-11-18T08:39:49.073Z,4472
2017-11-18T08:40:49.036Z,4516
2017-11-18T08:41:49.016Z,4804
2017-11-18T08:42:49.019Z,5004
2017-11-18T08:43:49.024Z,5084
2017-11-18T08:44:48.985Z,5140
2017-11-18T08:45:48.972Z,5116
2017-11-18T08:46:48.961Z,5148
2017-11-18T08:47:48.945Z,5228
2017-11-18T08:48:48.941Z,5112
2017-11-18T08:49:48.965Z,4876
2017-11-18T08:50:48.920Z,4960
2017-11-18T08:51:48.928Z,5088
2017-11-18T08:52:48.901Z,5008
2017-11-18T08:53:48.631Z,4952
2017-11-18T08:54:48.353Z,4756
2017-11-18T08:55:48.863Z,4756
2017-11-18T08:56:48.867Z,4828
2017-11-18T08:57:48.850Z,4972
2017-11-18T08:58:48.834Z,5332
2017-11-18T08:59:48.825Z,5788
2017-11-18T09:00:48.833Z,6404
2017-11-18T09:01:48.800Z,6424
2017-11-18T09:02:48.790Z,6144
2017-11-18T09:03:48.778Z,6136
2017-11-18T09:04:48.766Z,6328
2017-11-18T09:05:48.765Z,6384
2017-11-18T09:06:48.738Z,6368
2017-11-18T09:07:48.745Z,6228
2017-11-18T09:08:48.733Z,5968
2017-11-18T09:09:48.715Z,5896
2017-11-18T09:10:48.444Z,5916
2017-11-18T09:11:48.701Z,5776
2017-11-18T09:12:48.688Z,5684
2017-11-18T09:13:48.669Z,5728
2017-11-18T09:14:48.666Z,5852
2017-11-18T09:15:48.392Z,5864
2017-11-18T09:16:48.636Z,5780
2017-11-18T09:17:48.635Z,5760
2017-11-18T09:18:48.649Z,5884
2017-11-18T09:19:48.653Z,5760
2017-11-18T09:20:48.615Z,5576
2017-11-18T09:21:48.586Z,5572
2017-11-18T09:22:48.563Z,5496
2017-11-18T09:23:48.562Z,5344
2017-11-18T09:24:48.561Z,5392
2017-11-18T09:25:48.543Z,5464
2017-11-18T09:26:48.564Z,5504
2017-11-18T09:27:48.520Z,5592
2017-11-18T09:28:48.758Z,5768
2017-11-18T09:29:48.535Z,5880
2017-11-18T09:30:48.510Z,5996
2017-11-18T09:31:48.481Z,5900
2017-11-18T09:32:48.497Z,5864
2017-11-18T09:33:48.454Z,5796
2017-11-18T09:34:48.181Z,5808
2017-11-18T09:35:48.172Z,5708
2017-11-18T09:36:48.432Z,5664
2017-11-18T09:37:48.184Z,5736
2017-11-18T09:38:48.146Z,5900
2017-11-18T09:39:48.397Z,5932
2017-11-18T09:40:48.121Z,5628
2017-11-18T09:41:48.114Z,5372
2017-11-18T09:42:48.359Z,5380
2017-11-18T09:43:48.357Z,5480
2017-11-18T09:44:48.083Z,5280
2017-11-18T09:45:48.329Z,5216
2017-11-18T09:46:48.075Z,5176
2017-11-18T09:47:48.326Z,5020
2017-11-18T09:48:48.044Z,4864
2017-11-18T09:49:48.029Z,4704
2017-11-18T09:50:48.301Z,4652
2017-11-18T09:51:47.747Z,4672
2017-11-18T09:52:48.270Z,4576
2017-11-18T09:53:48.275Z,4444
2017-11-18T09:54:48.237Z,4460
2017-11-18T09:55:48.247Z,4352
2017-11-18T09:56:48.230Z,4204
2017-11-18T09:57:48.208Z,4148
2017-11-18T09:58:48.193Z,4032
2017-11-18T09:59:48.449Z,3988
2017-11-18T10:00:48.181Z,3988
2017-11-18T10:01:48.193Z,3848
2017-11-18T10:02:48.163Z,3692
2017-11-18T10:03:48.142Z,3564
2017-11-18T10:04:47.876Z,3504
2017-11-18T10:05:48.135Z,3468
2017-11-18T10:06:48.115Z,3436
2017-11-18T10:07:48.115Z,3484
2017-11-18T10:08:48.094Z,3572
2017-11-18T10:09:48.089Z,3548
2017-11-18T10:10:48.085Z,3512
2017-11-18T10:11:48.068Z,3544
2017-11-18T10:12:47.798Z,3600
2017-11-18T10:13:48.040Z,3644
2017-11-18T10:14:47.785Z,3708
2017-11-18T10:15:47.781Z,3836
2017-11-18T10:16:48.034Z,3912
2017-11-18T10:17:48.019Z,3752
2017-11-18T10:18:47.990Z,3716
2017-11-18T10:19:47.980Z,3696
2017-11-18T10:20:48.282Z,3600
2017-11-18T10:21:47.974Z,3604
2017-11-18T10:22:47.958Z,3660
2017-11-18T10:23:47.942Z,3584
2017-11-18T10:24:47.956Z,3588
2017-11-18T10:25:47.939Z,3608
2017-11-18T10:26:47.921Z,3520
2017-11-18T10:27:47.904Z,3460
2017-11-18T10:28:47.896Z,3468
2017-11-18T10:29:47.888Z,3588
2017-11-18T10:30:48.123Z,3848
2017-11-18T10:31:47.856Z,3964
2017-11-18T10:32:47.587Z,4168
2017-11-18T10:33:47.852Z,4168
2017-11-18T10:34:47.826Z,4116
2017-11-18T10:35:47.871Z,4120
2017-11-18T10:36:47.807Z,4116
2017-11-18T10:37:47.813Z,4024
2017-11-18T10:38:47.796Z,3928
2017-11-18T10:39:47.789Z,4140
2017-11-18T10:40:47.782Z,4292
2017-11-18T10:41:47.751Z,4060
2017-11-18T10:42:47.747Z,3676
2017-11-18T10:43:47.743Z,3504
2017-11-18T10:44:47.729Z,3156
2017-11-18T10:45:47.727Z,2928
2017-11-18T10:46:47.696Z,2896
2017-11-18T10:47:47.438Z,3076
2017-11-18T10:48:47.679Z,3172
2017-11-18T10:49:47.662Z,3520
2017-11-18T10:50:47.667Z,3640
2017-11-18T10:51:47.962Z,3752
2017-11-18T10:52:47.639Z,3876
2017-11-18T10:53:47.629Z,3716
2017-11-18T10:54:47.622Z,3484
2017-11-18T10:55:47.343Z,3332
2017-11-18T10:56:47.634Z,3280
2017-11-18T10:57:47.640Z,3400
2017-11-18T10:58:47.576Z,3632
2017-11-18T10:59:47.582Z,3676
2017-11-18T11:00:47.037Z,3536
2017-11-18T11:01:47.280Z,3368
2017-11-18T11:02:47.276Z,3220
2017-11-18T11:03:47.259Z,3108
2017-11-18T11:04:47.527Z,2948
2017-11-18T11:05:47.506Z,2928
2017-11-18T11:06:47.494Z,3136
2017-11-18T11:07:47.224Z,3328
2017-11-18T11:08:47.205Z,3464
2017-11-18T11:09:47.468Z,3816
2017-11-18T11:10:47.448Z,4128
2017-11-18T11:11:47.435Z,4296
2017-11-18T11:12:47.435Z,4204
2017-11-18T11:13:47.181Z,3932
2017-11-18T11:14:47.147Z,3688
2017-11-18T11:15:47.394Z,3552
2017-11-18T11:16:47.386Z,3616
2017-11-18T11:17:47.380Z,3796
2017-11-18T11:18:47.381Z,4180
2017-11-18T11:19:47.363Z,3936
2017-11-18T11:20:47.348Z,3716
2017-11-18T11:21:47.335Z,4052
2017-11-18T11:22:47.326Z,4196
2017-11-18T11:23:47.317Z,3896
2017-11-18T11:24:47.332Z,3720
2017-11-18T11:25:47.304Z,3844
2017-11-18T11:26:47.294Z,3604
2017-11-18T11:27:47.266Z,3428
2017-11-18T11:28:47.261Z,3444
2017-11-18T11:29:47.258Z,3200
2017-11-18T11:30:47.271Z,2812
2017-11-18T11:31:47.221Z,2536
2017-11-18T11:32:47.231Z,2332
2017-11-18T11:33:47.222Z,2252
2017-11-18T11:34:47.196Z,2388
2017-11-18T11:35:47.192Z,2504
2017-11-18T11:36:47.184Z,2420
2017-11-18T11:37:47.161Z,2184
2017-11-18T11:38:46.891Z,2128
2017-11-18T11:39:47.141Z,2216
2017-11-18T11:40:47.132Z,2364
2017-11-18T11:41:47.143Z,2516
2017-11-18T11:42:47.102Z,2388
2017-11-18T11:43:47.093Z,2392
2017-11-18T11:44:47.075Z,2316
2017-11-18T11:45:47.079Z,2144
2017-11-18T11:46:47.078Z,2132
2017-11-18T11:47:47.062Z,2264
2017-11-18T11:48:47.040Z,2388
2017-11-18T11:49:47.051Z,2260
2017-11-18T11:50:47.015Z,2172
2017-11-18T11:51:47.013Z,2224
2017-11-18T11:52:47.009Z,2356
2017-11-18T11:53:46.723Z,2512
2017-11-18T11:54:46.728Z,2752
2017-11-18T11:55:46.995Z,2816
2017-11-18T11:56:46.954Z,3128
2017-11-18T11:57:46.695Z,3740
2017-11-18T11:58:46.682Z,4412
2017-11-18T11:59:46.928Z,4656
2017-11-18T12:00:46.905Z,4740
2017-11-18T12:01:46.920Z,5144
2017-11-18T12:02:46.903Z,5328
2017-11-18T12:03:46.901Z,5080
2017-11-18T12:04:46.904Z,4500
2017-11-18T12:05:46.863Z,4068
2017-11-18T12:06:46.592Z,4096
2017-11-18T12:07:46.581Z,4248
2017-11-18T12:08:46.816Z,4456
2017-11-18T12:09:46.829Z,4712
2017-11-18T12:10:46.810Z,4736
2017-11-18T12:11:46.800Z,4304
2017-11-18T12:12:46.789Z,4220
2017-11-18T12:13:46.768Z,4340
2017-11-18T12:14:46.502Z,4268
2017-11-18T12:15:46.797Z,4240
2017-11-18T12:16:46.734Z,4360
2017-11-18T12:17:46.742Z,4500
2017-11-18T12:18:46.465Z,4772
2017-11-18T12:19:46.706Z,4780
2017-11-18T12:20:46.701Z,4796
2017-11-18T12:21:46.680Z,5060
2017-11-18T12:22:46.415Z,5416
2017-11-18T12:23:46.426Z,5524
2017-11-18T12:24:46.691Z,5288
2017-11-18T12:25:46.636Z,5208
2017-11-18T12:26:46.641Z,5168
2017-11-18T12:27:46.622Z,4972
2017-11-18T12:28:46.631Z,5056
2017-11-18T12:29:46.607Z,5060
2017-11-18T12:30:46.630Z,5284
2017-11-18T12:31:46.072Z,5588
2017-11-18T12:32:46.583Z,5716
2017-11-18T12:33:46.576Z,5960
2017-11-18T12:34:46.567Z,6248
2017-11-18T12:35:46.555Z,6308
2017-11-18T12:36:46.556Z,6292
2017-11-18T12:37:46.536Z,6292
2017-11-18T12:38:46.536Z,6276
2017-11-18T12:39:46.499Z,6268
2017-11-18T12:40:46.489Z,6324
2017-11-18T12:41:46.223Z,6204
2017-11-18T12:42:46.494Z,6148
2017-11-18T12:43:46.467Z,6180
2017-11-18T12:44:46.445Z,6052
2017-11-18T12:45:46.441Z,6068
2017-11-18T12:46:46.439Z,6068
2017-11-18T12:47:46.443Z,5744
2017-11-18T12:48:46.412Z,5952
2017-11-18T12:49:46.396Z,6056
2017-11-18T12:50:46.420Z,5976
2017-11-18T12:51:46.420Z,6224
2017-11-18T12:52:46.362Z,6340
2017-11-18T12:53:46.361Z,6472
2017-11-18T12:54:46.350Z,6432
2017-11-18T12:55:46.082Z,6464
2017-11-18T12:56:46.096Z,6452
2017-11-18T12:57:46.322Z,6340
2017-11-18T12:58:46.066Z,6356
2017-11-18T12:59:46.302Z,6316
2017-11-18T13:00:46.288Z,6028
2017-11-18T13:01:46.271Z,5772
2017-11-18T13:02:46.013Z,5660
2017-11-18T13:03:46.266Z,5560
2017-11-18T13:04:46.259Z,5228
2017-11-18T13:05:46.245Z,4936
2017-11-18T13:06:45.972Z,4580
2017-11-18T13:07:46.217Z,4412
2017-11-18T13:08:46.215Z,4436
2017-11-18T13:09:46.211Z,4440
2017-11-18T13:10:46.209Z,4200
2017-11-18T13:11:46.181Z,3764
2017-11-18T13:12:45.920Z,3528
2017-11-18T13:13:46.163Z,3352
2017-11-18T13:14:45.894Z,3360
2017-11-18T13:15:46.138Z,3260
2017-11-18T13:16:46.136Z,3028
2017-11-18T13:17:46.119Z,2948
2017-11-18T13:18:46.122Z,2912
2017-11-18T13:19:46.104Z,2956
2017-11-18T13:20:46.103Z,3076
2017-11-18T13:21:46.085Z,3048
2017-11-18T13:22:46.081Z,2900
2017-11-18T13:23:46.074Z,2932
2017-11-18T13:24:46.102Z,2936
2017-11-18T13:25:46.043Z,2868
2017-11-18T13:26:46.032Z,2776
2017-11-18T13:27:46.016Z,2664
2017-11-18T13:28:46.016Z,2576
2017-11-18T13:29:46.009Z,2360
2017-11-18T13:30:45.994Z,2064
2017-11-18T13:31:45.991Z,1904
2017-11-18T13:32:45.970Z,1720
2017-11-18T13:33:45.693Z,1544
2017-11-18T13:34:45.945Z,1440
2017-11-18T13:35:45.965Z,1340
2017-11-18T13:36:45.952Z,1244
2017-11-18T13:37:45.925Z,1312
2017-11-18T13:38:45.918Z,1384
2017-11-18T13:39:45.893Z,1560
2017-11-18T13:40:45.888Z,1652
2017-11-18T13:41:45.874Z,1796
2017-11-18T13:42:45.890Z,1956
2017-11-18T13:43:45.862Z,2152
2017-11-18T13:44:45.874Z,2360
2017-11-18T13:45:45.836Z,2572
2017-11-18T13:46:45.852Z,2672
2017-11-18T13:47:45.850Z,2724
2017-11-18T13:48:45.801Z,2800
2017-11-18T13:49:45.787Z,2844
2017-11-18T13:50:45.788Z,2888
2017-11-18T13:51:45.801Z,2960
2017-11-18T13:52:45.765Z,3024
2017-11-18T13:53:45.759Z,3044
2017-11-18T13:54:45.523Z,3012
2017-11-18T13:55:45.756Z,2936
2017-11-18T13:56:45.472Z,2924
2017-11-18T13:57:45.720Z,2916